createdAt,value
2023-01-17T00:02:10.387Z,95582.19
2023-01-17T00:04:56.315Z,95584.88
2023-01-17T00:07:44.112Z,95574.38
2023-01-17T00:10:14.436Z,95583.22
2023-01-17T00:12:47.930Z,95584.06
2023-01-17T00:15:19.696Z,95580.53
2023-01-17T00:17:48.460Z,95576.81
2023-01-17T00:20:35.400Z,95569.81
2023-01-17T00:23:26.113Z,95578.94
2023-01-17T00:26:06.710Z,95579.72
2023-01-17T00:28:36.016Z,95568.19
2023-01-17T00:31:04.593Z,95576.81
2023-01-17T00:33:32.065Z,95574.16
2023-01-17T00:36:00.037Z,95582.19
2023-01-17T00:38:29.736Z,95584.88
2023-01-17T00:41:01.993Z,95577.63
2023-01-17T00:43:48.357Z,95577.84
2023-01-17T00:46:34.394Z,95576.00
2023-01-17T00:49:21.154Z,95581.38
2023-01-17T00:52:07.407Z,95588.38
2023-01-17T00:54:55.122Z,95588.59
2023-01-17T00:57:41.238Z,95598.28
2023-01-17T01:00:28.924Z,95594.78
2023-01-17T01:03:14.641Z,95589.66
2023-01-17T01:06:00.687Z,95592.91
2023-01-17T01:08:47.427Z,95589.44
2023-01-17T01:11:36.471Z,95588.38
2023-01-17T01:14:22.523Z,95584.88
2023-01-17T01:17:09.462Z,95592.91
2023-01-17T01:19:55.238Z,95585.91
2023-01-17T01:22:41.551Z,95583.47
2023-01-17T01:25:28.201Z,95584.28
2023-01-17T01:28:23.884Z,95584.28
2023-01-17T01:31:09.733Z,95593.16
2023-01-17T01:33:38.409Z,95591.28
2023-01-17T01:36:08.709Z,95586.97
2023-01-17T01:38:37.344Z,95596.63
2023-01-17T01:41:06.505Z,95595.81
2023-01-17T01:43:45.943Z,95590.47
2023-01-17T01:46:16.496Z,95586.97
2023-01-17T01:48:48.852Z,95602.00
2023-01-17T01:51:20.614Z,95591.28
2023-01-17T01:53:51.903Z,95594.22
2023-01-17T01:56:23.477Z,95589.66
2023-01-17T01:58:53.888Z,95591.28
2023-01-17T02:01:22.707Z,95590.47
2023-01-17T02:03:51.419Z,95593.97
2023-01-17T02:06:31.679Z,95595.81
2023-01-17T02:09:04.600Z,95608.44
2023-01-17T02:11:33.636Z,95598.50
2023-01-17T02:14:03.885Z,95606.56
2023-01-17T02:16:46.565Z,95603.06
2023-01-17T02:20:03.344Z,95601.44
2023-01-17T02:23:11.681Z,95605.75
2023-01-17T02:26:04.289Z,95604.94
2023-01-17T02:28:45.120Z,95595.25
2023-01-17T02:31:16.431Z,95596.09
2023-01-17T02:33:48.960Z,95593.63
2023-01-17T02:36:21.526Z,95584.28
2023-01-17T02:38:53.412Z,95582.66
2023-01-17T02:41:23.667Z,95578.13
2023-01-17T02:43:52.685Z,95582.66
2023-01-17T02:46:22.738Z,95587.19
2023-01-17T02:48:51.596Z,95598.78
2023-01-17T02:51:48.981Z,95607.84
2023-01-17T02:54:39.792Z,95605.97
2023-01-17T02:57:25.514Z,95598.78
2023-01-17T02:59:58.446Z,95603.06
2023-01-17T03:02:32.444Z,95597.13
2023-01-17T03:05:03.497Z,95591.75
2023-01-17T03:07:32.358Z,95586.38
2023-01-17T03:10:03.601Z,95590.13
2023-01-17T03:12:33.611Z,95596.31
2023-01-17T03:15:02.248Z,95590.13
2023-01-17T03:17:33.964Z,95592.56
2023-01-17T03:20:02.598Z,95610.53
2023-01-17T03:22:31.234Z,95606.81
2023-01-17T03:24:59.766Z,95610.53
2023-01-17T03:27:28.704Z,95610.53
2023-01-17T03:29:57.346Z,95614.03
2023-01-17T03:32:26.356Z,95614.03
2023-01-17T03:34:56.690Z,95622.06
2023-01-17T03:37:25.417Z,95628.28
2023-01-17T03:39:53.923Z,95625.81
2023-01-17T03:42:22.573Z,95614.88
2023-01-17T03:44:51.240Z,95607.84
2023-01-17T03:47:19.982Z,95613.22
2023-01-17T03:49:48.770Z,95619.38
2023-01-17T03:52:18.768Z,95624.75
2023-01-17T03:54:48.642Z,95623.13
2023-01-17T03:57:17.346Z,95619.38
2023-01-17T03:59:47.184Z,95613.22
2023-01-17T04:02:15.962Z,95620.22
2023-01-17T04:04:44.947Z,95610.53
2023-01-17T04:07:13.626Z,95607.84
2023-01-17T04:09:43.499Z,95607.84
2023-01-17T04:12:12.231Z,95614.88
2023-01-17T04:14:41.227Z,95623.13
2023-01-17T04:17:11.770Z,95619.66
2023-01-17T04:19:41.100Z,95623.94
2023-01-17T04:22:09.819Z,95618.56
2023-01-17T04:24:38.364Z,95621.53
2023-01-17T04:27:09.189Z,95616.16
2023-01-17T04:29:37.912Z,95615.09
2023-01-17T04:32:06.766Z,95627.44
2023-01-17T04:34:35.393Z,95616.16
2023-01-17T04:37:03.937Z,95633.06
2023-01-17T04:39:32.558Z,95633.06
2023-01-17T04:42:01.204Z,95636.53
2023-01-17T04:44:31.161Z,95633.06
2023-01-17T04:47:02.002Z,95635.75
2023-01-17T04:49:30.802Z,95634.09
2023-01-17T04:51:59.611Z,95641.09
2023-01-17T04:54:28.241Z,95639.22
2023-01-17T04:56:56.900Z,95633.88
2023-01-17T04:59:25.617Z,95634.09
2023-01-17T05:01:55.777Z,95637.63
2023-01-17T05:04:24.436Z,95636.78
2023-01-17T05:06:52.903Z,95636.78
2023-01-17T05:09:21.597Z,95638.41
2023-01-17T05:11:50.285Z,95635.75
2023-01-17T05:14:18.967Z,95639.22
2023-01-17T05:16:47.629Z,95644.59
2023-01-17T05:19:19.657Z,95646.47
2023-01-17T05:21:49.504Z,95646.47
2023-01-17T05:24:18.970Z,95650.78
2023-01-17T05:26:54.744Z,95651.84
2023-01-17T05:29:23.751Z,95645.66
2023-01-17T05:31:52.238Z,95647.50
2023-01-17T05:34:22.135Z,95640.28
2023-01-17T05:36:50.814Z,95644.81
2023-01-17T05:39:19.463Z,95642.13
2023-01-17T05:41:48.183Z,95641.00
2023-01-17T05:44:17.006Z,95641.59
2023-01-17T05:46:45.582Z,95640.19
2023-01-17T05:49:14.227Z,95633.19
2023-01-17T05:51:44.226Z,95635.03
2023-01-17T05:54:12.964Z,95639.59
2023-01-17T05:56:41.492Z,95638.78
2023-01-17T05:59:13.187Z,95639.81
2023-01-17T06:01:42.604Z,95648.94
2023-01-17T06:04:12.084Z,95655.69
2023-01-17T06:06:40.620Z,95664.31
2023-01-17T06:09:12.070Z,95655.00
2023-01-17T06:11:40.774Z,95665.72
2023-01-17T06:14:10.089Z,95679.94
2023-01-17T06:16:38.735Z,95679.34
2023-01-17T06:19:07.314Z,95682.63
2023-01-17T06:21:35.943Z,95676.56
2023-01-17T06:24:04.707Z,95682.03
2023-01-17T06:26:35.210Z,95668.50
2023-01-17T06:29:03.803Z,95674.91
2023-01-17T06:31:32.535Z,95675.50
2023-01-17T06:34:04.237Z,95661.50
2023-01-17T06:36:33.734Z,95675.59
2023-01-17T06:39:02.337Z,95663.47
2023-01-17T06:41:30.983Z,95677.13
2023-01-17T06:44:01.000Z,95675.03
2023-01-17T06:46:29.898Z,95677.22
2023-01-17T06:48:58.585Z,95679.91
2023-01-17T06:51:27.987Z,95689.81
2023-01-17T06:53:56.592Z,95676.66
2023-01-17T06:56:25.342Z,95683.31
2023-01-17T06:58:53.969Z,95691.91
2023-01-17T07:01:24.237Z,95693.91
2023-01-17T07:03:53.093Z,95697.97
2023-01-17T07:06:21.725Z,95692.63
2023-01-17T07:08:50.705Z,95700.56
2023-01-17T07:11:19.258Z,95695.34
2023-01-17T07:13:47.933Z,95705.59
2023-01-17T07:16:16.740Z,95699.88
2023-01-17T07:18:46.778Z,95695.34
2023-01-17T07:21:15.514Z,95700.69
2023-01-17T07:23:44.151Z,95696.47
2023-01-17T07:26:12.743Z,95688.44
2023-01-17T07:28:41.553Z,95685.75
2023-01-17T07:31:10.441Z,95695.66
2023-01-17T07:33:39.033Z,95694.06
2023-01-17T07:36:09.942Z,95696.97
2023-01-17T07:38:38.873Z,95703.59
2023-01-17T07:41:08.106Z,95702.91
2023-01-17T07:43:37.870Z,95700.69
2023-01-17T07:46:07.850Z,95706.88
2023-01-17T07:48:36.786Z,95704.41
2023-01-17T07:51:05.642Z,95703.84
2023-01-17T07:53:35.765Z,95710.03
2023-01-17T07:56:04.777Z,95714.56
2023-01-17T07:58:33.455Z,95714.81
2023-01-17T08:01:06.374Z,95726.34
2023-01-17T08:03:39.796Z,95724.25
2023-01-17T08:06:13.221Z,95733.34
2023-01-17T08:08:43.163Z,95731.25
2023-01-17T08:11:11.832Z,95740.34
2023-01-17T08:13:41.858Z,95741.63
2023-01-17T08:16:11.541Z,95753.19
2023-01-17T08:18:40.240Z,95748.06
2023-01-17T08:21:14.439Z,95756.94
2023-01-17T08:23:44.721Z,95751.56
2023-01-17T08:26:21.275Z,95752.72
2023-01-17T08:28:51.068Z,95745.97
2023-01-17T08:31:20.104Z,95756.34
2023-01-17T08:33:48.680Z,95755.28
2023-01-17T08:36:17.436Z,95756.34
2023-01-17T08:38:47.372Z,95753.66
2023-01-17T08:41:15.928Z,95752.59
2023-01-17T08:43:47.835Z,95751.19
2023-01-17T08:46:16.437Z,95745.81
2023-01-17T08:48:45.051Z,95752.03
2023-01-17T08:51:13.926Z,95752.03
2023-01-17T08:53:42.531Z,95750.75
2023-01-17T08:56:13.253Z,95755.75
2023-01-17T08:58:41.921Z,95744.78
2023-01-17T09:01:10.595Z,95744.53
2023-01-17T09:03:40.915Z,95746.19
2023-01-17T09:06:11.054Z,95755.84
2023-01-17T09:08:39.684Z,95755.06
2023-01-17T09:11:09.170Z,95758.06
2023-01-17T09:13:39.496Z,95764.03
2023-01-17T09:16:08.624Z,95763.91
2023-01-17T09:18:37.427Z,95763.44
2023-01-17T09:21:13.197Z,95769.59
2023-01-17T09:23:41.869Z,95769.59
2023-01-17T09:26:18.392Z,95768.78
2023-01-17T09:28:48.368Z,95770.44
2023-01-17T09:31:17.731Z,95769.97
2023-01-17T09:33:46.468Z,95773.81
2023-01-17T09:36:15.086Z,95773.25
2023-01-17T09:38:43.979Z,95775.69
2023-01-17T09:41:24.365Z,95774.41
2023-01-17T09:43:57.780Z,95781.03
2023-01-17T09:46:29.222Z,95790.38
2023-01-17T09:49:03.224Z,95780.72
2023-01-17T09:51:31.929Z,95790.38
2023-01-17T09:54:02.501Z,95790.97
2023-01-17T09:56:33.155Z,95807.53
2023-01-17T09:59:32.647Z,95805.22
2023-01-17T10:02:12.353Z,95782.34
2023-01-17T10:05:04.731Z,95781.50
2023-01-17T10:07:40.881Z,95780.13
2023-01-17T10:10:23.283Z,95784.41
2023-01-17T10:12:56.580Z,95781.50
2023-01-17T10:15:48.577Z,95779.06
2023-01-17T10:18:33.556Z,95785.25
2023-01-17T10:21:05.868Z,95782.31
2023-01-17T10:24:00.563Z,95777.78
2023-01-17T10:26:29.289Z,95773.59
2023-01-17T10:29:01.707Z,95775.47
2023-01-17T10:31:35.071Z,95781.38
2023-01-17T10:34:06.406Z,95780.56
2023-01-17T10:36:39.069Z,95776.00
2023-01-17T10:39:16.017Z,95785.13
2023-01-17T10:41:46.558Z,95783.50
2023-01-17T10:44:19.894Z,95789.22
2023-01-17T10:46:53.988Z,95792.69
2023-01-17T10:49:24.445Z,95794.56
2023-01-17T10:52:11.979Z,95788.72
2023-01-17T10:55:06.744Z,95790.59
2023-01-17T10:57:40.419Z,95792.22
2023-01-17T11:00:30.307Z,95794.91
2023-01-17T11:03:00.604Z,95792.22
2023-01-17T11:05:30.716Z,95788.16
2023-01-17T11:08:00.963Z,95799.81
2023-01-17T11:10:41.631Z,95795.97
2023-01-17T11:13:26.859Z,95798.69
2023-01-17T11:15:57.922Z,95796.56
2023-01-17T11:18:30.182Z,95792.94
2023-01-17T11:21:17.648Z,95788.41
2023-01-17T11:23:46.810Z,95794.09
2023-01-17T11:26:24.762Z,95794.91
2023-01-17T11:28:53.391Z,95795.84
2023-01-17T11:31:27.276Z,95794.91
2023-01-17T11:34:18.541Z,95784.16
2023-01-17T11:36:47.301Z,95781.50
2023-01-17T11:39:29.046Z,95786.03
2023-01-17T11:41:57.690Z,95784.06
2023-01-17T11:44:28.901Z,95779.97
2023-01-17T11:47:11.336Z,95785.59
2023-01-17T11:49:41.746Z,95778.63
2023-01-17T11:52:10.760Z,95772.41
2023-01-17T11:54:40.552Z,95767.03
2023-01-17T11:57:22.227Z,95771.59
2023-01-17T11:59:52.627Z,95771.59
2023-01-17T12:02:55.103Z,95762.97
2023-01-17T12:05:55.346Z,95765.63
2023-01-17T12:08:34.140Z,95761.66
2023-01-17T12:11:07.995Z,95767.03
2023-01-17T12:14:01.840Z,95762.25
2023-01-17T12:17:00.847Z,95765.53
2023-01-17T12:19:43.688Z,95754.22
2023-01-17T12:22:29.838Z,95750.94
2023-01-17T12:25:15.037Z,95758.44
2023-01-17T12:27:48.843Z,95751.78
2023-01-17T12:30:30.959Z,95752.22
2023-01-17T12:33:21.903Z,95750.59
2023-01-17T12:35:52.971Z,95757.84
2023-01-17T12:38:32.559Z,95769.59
2023-01-17T12:41:05.980Z,95763.44
2023-01-17T12:43:37.336Z,95769.88
2023-01-17T12:46:09.015Z,95773.34
2023-01-17T12:48:39.473Z,95781.63
2023-01-17T12:51:10.608Z,95789.44
2023-01-17T12:53:43.664Z,95782.47
2023-01-17T12:56:15.834Z,95781.63
2023-01-17T12:58:48.225Z,95780.34
2023-01-17T13:01:23.307Z,95780.34
2023-01-17T13:04:00.608Z,95770.91
2023-01-17T13:06:43.028Z,95776.25
2023-01-17T13:09:13.682Z,95781.63
2023-01-17T13:11:46.656Z,95772.22
2023-01-17T13:14:15.372Z,95776.50
2023-01-17T13:16:46.435Z,95773.03
2023-01-17T13:19:19.665Z,95768.69
2023-01-17T13:21:49.040Z,95772.22
2023-01-17T13:24:39.494Z,95764.97
2023-01-17T13:27:36.341Z,95761.47
2023-01-17T13:30:35.988Z,95765.78
2023-01-17T13:33:25.430Z,95773.03
2023-01-17T13:36:02.959Z,95774.88
2023-01-17T13:38:56.017Z,95778.13
2023-01-17T13:41:54.844Z,95782.00
2023-01-17T13:44:24.637Z,95792.25
2023-01-17T13:47:02.198Z,95807.16
2023-01-17T13:49:37.225Z,95808.00
2023-01-17T13:52:12.319Z,95816.28
2023-01-17T13:54:48.744Z,95820.03
2023-01-17T13:57:44.019Z,95824.53
2023-01-17T14:00:54.859Z,95839.59
2023-01-17T14:04:03.978Z,95838.78
2023-01-17T14:06:40.122Z,95844.16
2023-01-17T14:09:16.690Z,95847.66
2023-01-17T14:11:56.452Z,95850.34
2023-01-17T14:14:50.046Z,95854.88
2023-01-17T14:17:59.229Z,95859.41
2023-01-17T14:20:50.621Z,95861.28
2023-01-17T14:23:59.936Z,95870.41
2023-01-17T14:26:36.622Z,95883.00
2023-01-17T14:29:55.952Z,95878.66
2023-01-17T14:32:25.869Z,95885.69
2023-01-17T14:34:55.021Z,95885.91
2023-01-17T14:37:43.105Z,95887.75
2023-01-17T14:40:18.617Z,95900.38
2023-01-17T14:42:48.044Z,95903.06
2023-01-17T14:45:29.471Z,95903.84
2023-01-17T14:47:59.013Z,95908.75
2023-01-17T14:50:29.390Z,95910.28
2023-01-17T14:53:20.272Z,95911.09
2023-01-17T14:55:55.203Z,95914.00
2023-01-17T14:58:25.858Z,95918.34
2023-01-17T15:01:01.745Z,95922.03
2023-01-17T15:03:31.396Z,95925.78
2023-01-17T15:06:05.014Z,95933.84
2023-01-17T15:08:36.493Z,95928.81
2023-01-17T15:11:07.485Z,95937.47
2023-01-17T15:13:44.191Z,95928.59
2023-01-17T15:16:22.747Z,95936.84
2023-01-17T15:18:51.583Z,95940.13
2023-01-17T15:21:21.180Z,95934.78
2023-01-17T15:23:51.731Z,95942.00
2023-01-17T15:26:22.563Z,95941.63
2023-01-17T15:28:51.586Z,95940.59
2023-01-17T15:31:24.704Z,95933.50
2023-01-17T15:33:59.243Z,95936.19
2023-01-17T15:36:30.398Z,95931.03
2023-01-17T15:39:00.742Z,95931.03
2023-01-17T15:41:32.017Z,95920.91
2023-01-17T15:44:01.039Z,95919.50
2023-01-17T15:46:33.883Z,95917.06
2023-01-17T15:49:17.655Z,95910.28
2023-01-17T15:51:52.819Z,95913.66
2023-01-17T15:54:44.831Z,95915.53
2023-01-17T15:57:27.062Z,95916.47
2023-01-17T15:59:59.576Z,95904.94
2023-01-17T16:02:43.125Z,95898.50
2023-01-17T16:05:34.518Z,95900.72
2023-01-17T16:08:38.631Z,95899.91
2023-01-17T16:11:07.952Z,95906.53
2023-01-17T16:13:38.710Z,95907.25
2023-01-17T16:16:22.394Z,95896.97
2023-01-17T16:18:59.080Z,95893.25
2023-01-17T16:21:28.750Z,95890.09
2023-01-17T16:23:57.564Z,95889.03
2023-01-17T16:26:26.215Z,95891.97
2023-01-17T16:28:55.028Z,95891.72
2023-01-17T16:31:23.723Z,95890.09
2023-01-17T16:33:53.864Z,95894.66
2023-01-17T16:36:23.085Z,95887.41
2023-01-17T16:38:53.276Z,95888.09
2023-01-17T16:41:21.971Z,95885.69
2023-01-17T16:44:02.011Z,95880.31
2023-01-17T16:46:30.995Z,95876.81
2023-01-17T16:49:02.361Z,95872.25
2023-01-17T16:51:30.987Z,95878.44
2023-01-17T16:53:59.745Z,95868.53
2023-01-17T16:56:28.296Z,95870.41
2023-01-17T16:58:56.896Z,95861.53
2023-01-17T17:01:25.701Z,95858.84
2023-01-17T17:03:54.316Z,95854.50
2023-01-17T17:06:24.345Z,95856.16
2023-01-17T17:08:52.891Z,95857.19
2023-01-17T17:11:23.161Z,95849.16
2023-01-17T17:13:52.160Z,95851.84
2023-01-17T17:16:22.456Z,95854.50
2023-01-17T17:18:56.461Z,95855.56
2023-01-17T17:21:26.825Z,95851.03
2023-01-17T17:23:58.278Z,95842.16
2023-01-17T17:26:28.994Z,95845.66
2023-01-17T17:28:58.000Z,95843.78
2023-01-17T17:31:26.572Z,95852.69
2023-01-17T17:33:59.039Z,95846.47
2023-01-17T17:36:29.241Z,95840.06
2023-01-17T17:38:58.056Z,95832.84
2023-01-17T17:41:27.834Z,95835.28
2023-01-17T17:43:56.674Z,95830.97
2023-01-17T17:46:26.821Z,95836.13
2023-01-17T17:48:55.798Z,95852.44
2023-01-17T17:51:26.204Z,95858.59
2023-01-17T17:53:56.733Z,95856.72
2023-01-17T17:56:25.489Z,95862.09
2023-01-17T17:58:54.034Z,95864.78
2023-01-17T18:01:24.327Z,95862.09
2023-01-17T18:03:53.372Z,95867.47
2023-01-17T18:06:22.165Z,95874.69
2023-01-17T18:08:52.216Z,95879.03
2023-01-17T18:11:24.276Z,95878.19
2023-01-17T18:13:53.408Z,95881.72
2023-01-17T18:16:27.067Z,95879.03
2023-01-17T18:18:56.753Z,95880.88
2023-01-17T18:21:26.567Z,95887.88
2023-01-17T18:23:56.841Z,95884.75
2023-01-17T18:26:28.191Z,95887.22
2023-01-17T18:28:58.010Z,95886.72
2023-01-17T18:31:27.204Z,95893.16
2023-01-17T18:33:56.163Z,95886.50
2023-01-17T18:36:25.161Z,95887.41
2023-01-17T18:38:54.014Z,95888.72
2023-01-17T18:41:24.048Z,95881.16
2023-01-17T18:43:56.130Z,95889.75
2023-01-17T18:46:25.969Z,95886.13
2023-01-17T18:48:56.779Z,95896.53
2023-01-17T18:51:25.898Z,95893.25
2023-01-17T18:53:54.949Z,95891.84
2023-01-17T18:56:23.814Z,95891.97
2023-01-17T18:58:55.299Z,95897.81
2023-01-17T19:01:25.111Z,95897.22
2023-01-17T19:03:56.060Z,95893.97
2023-01-17T19:06:26.301Z,95898.75
2023-01-17T19:08:54.932Z,95891.72
2023-01-17T19:11:24.480Z,95892.31
2023-01-17T19:13:54.504Z,95892.09
2023-01-17T19:16:25.684Z,95885.56
2023-01-17T19:18:54.579Z,95876.09
2023-01-17T19:21:24.512Z,95875.28
2023-01-17T19:23:53.469Z,95878.19
2023-01-17T19:26:23.958Z,95870.97
2023-01-17T19:28:54.408Z,95869.34
2023-01-17T19:31:24.072Z,95868.53
2023-01-17T19:33:54.122Z,95868.44
2023-01-17T19:36:24.258Z,95856.28
2023-01-17T19:39:03.901Z,95854.88
2023-01-17T19:41:34.129Z,95854.31
2023-01-17T19:44:06.094Z,95842.75
2023-01-17T19:46:35.140Z,95830.75
2023-01-17T19:49:04.414Z,95836.13
2023-01-17T19:51:33.083Z,95842.28
2023-01-17T19:54:04.231Z,95829.91
2023-01-17T19:56:33.242Z,95832.84
2023-01-17T19:59:03.181Z,95828.28
2023-01-17T20:01:33.601Z,95838.78
2023-01-17T20:04:02.874Z,95832.38
2023-01-17T20:06:32.576Z,95831.56
2023-01-17T20:09:01.226Z,95824.53
2023-01-17T20:11:30.147Z,95818.16
2023-01-17T20:14:00.131Z,95820.03
2023-01-17T20:16:31.524Z,95814.41
2023-01-17T20:19:02.938Z,95810.09
2023-01-17T20:21:32.151Z,95812.78
2023-01-17T20:24:03.458Z,95811.13
2023-01-17T20:26:35.737Z,95811.13
2023-01-17T20:29:06.941Z,95814.66
2023-01-17T20:31:38.712Z,95818.16
2023-01-17T20:34:08.182Z,95797.72
2023-01-17T20:36:37.058Z,95809.03
2023-01-17T20:39:06.599Z,95805.75
2023-01-17T20:41:36.588Z,95803.09
2023-01-17T20:44:07.286Z,95795.28
2023-01-17T20:46:41.139Z,95797.16
2023-01-17T20:49:15.064Z,95796.09
2023-01-17T20:51:44.589Z,95803.09
2023-01-17T20:54:15.179Z,95808.69
2023-01-17T20:56:43.840Z,95803.09
2023-01-17T20:59:14.669Z,95794.22
2023-01-17T21:01:45.055Z,95806.00
2023-01-17T21:04:14.842Z,95806.81
2023-01-17T21:06:44.059Z,95793.41
2023-01-17T21:09:14.255Z,95816.50
2023-01-17T21:11:42.917Z,95815.47
2023-01-17T21:14:11.507Z,95818.75
2023-01-17T21:16:40.309Z,95822.44
2023-01-17T21:19:12.209Z,95829.91
2023-01-17T21:21:41.019Z,95821.31
2023-01-17T21:24:09.889Z,95811.13
2023-01-17T21:26:39.995Z,95803.94
2023-01-17T21:29:09.656Z,95787.00
2023-01-17T21:31:40.345Z,95774.16
2023-01-17T21:34:11.394Z,95780.59
2023-01-17T21:36:41.388Z,95784.91
2023-01-17T21:39:12.565Z,95779.53
2023-01-17T21:41:42.104Z,95795.63
2023-01-17T21:44:14.730Z,95791.31
2023-01-17T21:46:43.442Z,95798.56
2023-01-17T21:49:13.553Z,95807.41
2023-01-17T21:51:59.795Z,95800.41
2023-01-17T21:54:46.789Z,95795.03
2023-01-17T21:57:34.324Z,95798.56
2023-01-17T22:00:03.147Z,95808.44
2023-01-17T22:02:31.719Z,95803.94
2023-01-17T22:05:01.854Z,95800.66
2023-01-17T22:07:30.779Z,95795.63
2023-01-17T22:09:59.400Z,95794.81
2023-01-17T22:12:28.047Z,95793.41
2023-01-17T22:14:56.837Z,95787.00
2023-01-17T22:17:25.487Z,95781.06
2023-01-17T22:19:54.025Z,95778.94
2023-01-17T22:22:24.449Z,95770.34
2023-01-17T22:24:53.067Z,95767.66
2023-01-17T22:27:21.664Z,95767.66
2023-01-17T22:29:50.466Z,95762.28
2023-01-17T22:32:19.134Z,95756.94
2023-01-17T22:34:47.724Z,95748.88
2023-01-17T22:37:16.517Z,95740.81
2023-01-17T22:39:46.560Z,95744.06
2023-01-17T22:42:16.728Z,95737.91
2023-01-17T22:44:45.839Z,95730.09
2023-01-17T22:47:14.656Z,95737.91
2023-01-17T22:49:43.471Z,95735.00
2023-01-17T22:52:12.680Z,95732.31
2023-01-17T22:54:41.375Z,95727.97
2023-01-17T22:57:11.731Z,95727.97
2023-01-17T22:59:40.315Z,95733.34
2023-01-17T23:02:09.123Z,95716.69
2023-01-17T23:04:40.053Z,95722.59
2023-01-17T23:07:08.685Z,95717.25
2023-01-17T23:09:37.347Z,95711.88
2023-01-17T23:12:06.404Z,95700.34
2023-01-17T23:14:50.865Z,95700.34
2023-01-17T23:17:48.788Z,95699.53
2023-01-17T23:20:17.850Z,95694.97
2023-01-17T23:22:46.723Z,95698.47
2023-01-17T23:25:15.836Z,95684.25
2023-01-17T23:28:02.894Z,95688.56
2023-01-17T23:30:34.834Z,95677.00
2023-01-17T23:33:05.069Z,95685.06
2023-01-17T23:35:34.986Z,95678.06
2023-01-17T23:38:21.439Z,95670.03
2023-01-17T23:41:03.937Z,95663.59
2023-01-17T23:43:32.749Z,95664.91
2023-01-17T23:46:02.769Z,95663.59
2023-01-17T23:48:31.691Z,95666.53
2023-01-17T23:51:01.333Z,95656.63
2023-01-17T23:53:29.909Z,95650.19
2023-01-17T23:56:00.321Z,95641.31
2023-01-17T23:58:29.951Z,95639.72
